Time;durP1;ratioP1;P1;durP2;ratioP2;P2;SDS_P1;SDS_P2;PMS_P1;PMS_P2;Temp;Humidity;BMP_temperature;BMP_pressure;BME280_temperature;BME280_humidity;BME280_pressure;Samples;Min_cycle;Max_cycle;Signal;HPM_P1;HPM_P2
2022/01/09 00:00:37;;;;;;;2.77;2.57;;;4.70;94.40;;;;;;5049835;28;20229;-76
2022/01/09 00:03:03;;;;;;;2.97;2.73;;;4.70;94.40;;;;;;5051521;28;20179;-76
2022/01/09 00:05:30;;;;;;;2.13;2.10;;;4.70;94.20;;;;;;5051656;28;20190;-76
2022/01/09 00:07:56;;;;;;;2.33;2.23;;;4.70;94.60;;;;;;5055147;28;20215;-76
2022/01/09 00:10:22;;;;;;;2.40;2.20;;;4.60;94.70;;;;;;5047645;28;20208;-75
2022/01/09 00:12:48;;;;;;;3.60;2.77;;;4.70;94.80;;;;;;5053007;28;20188;-76
2022/01/09 00:15:14;;;;;;;6.77;3.20;;;4.70;94.80;;;;;;5055643;28;20670;-76
2022/01/09 00:17:40;;;;;;;3.07;1.80;;;4.70;95.00;;;;;;5051952;28;20183;-76
2022/01/09 00:20:08;;;;;;;1.63;1.63;;;4.70;95.10;;;;;;5051829;28;20193;-76
2022/01/09 00:22:43;;;;;;;1.50;1.20;;;4.70;95.00;;;;;;5049700;28;20266;-74
2022/01/09 00:25:09;;;;;;;2.10;1.90;;;4.70;94.90;;;;;;5056911;28;20891;-75
2022/01/09 00:27:36;;;;;;;3.70;1.67;;;4.80;94.80;;;;;;5053862;28;20285;-75
2022/01/09 00:30:07;;;;;;;1.63;1.43;;;4.80;94.80;;;;;;5058810;28;20207;-75
2022/01/09 00:32:33;;;;;;;1.80;1.50;;;4.80;94.90;;;;;;5054853;28;20236;-75
2022/01/09 00:34:59;;;;;;;2.17;1.60;;;4.80;94.80;;;;;;5050958;28;20198;-75
2022/01/09 00:37:24;;;;;;;2.47;2.27;;;4.80;94.80;;;;;;5055339;28;20563;-75
2022/01/09 00:39:51;;;;;;;2.57;2.23;;;4.90;94.70;;;;;;5059788;28;20208;-76
2022/01/09 00:42:18;;;;;;;3.13;1.60;;;4.90;94.60;;;;;;5054518;28;20175;-75
2022/01/09 00:44:43;;;;;;;3.53;1.90;;;4.90;94.60;;;;;;5053593;28;20330;-75
2022/01/09 00:47:09;;;;;;;3.30;2.50;;;4.90;94.50;;;;;;5054790;28;20273;-76
2022/01/09 00:49:35;;;;;;;5.03;2.77;;;4.90;94.40;;;;;;5058776;28;20232;-75
2022/01/09 00:52:00;;;;;;;3.00;2.70;;;5.00;94.40;;;;;;5056126;28;20262;-76
2022/01/09 00:54:26;;;;;;;2.60;2.40;;;4.90;94.20;;;;;;5057690;28;20202;-76
2022/01/09 00:56:52;;;;;;;5.87;2.80;;;5.00;94.20;;;;;;5055896;28;20223;-76
2022/01/09 00:59:17;;;;;;;2.97;2.77;;;5.00;93.90;;;;;;5052779;28;20195;-75
2022/01/09 01:01:43;;;;;;;5.57;3.07;;;5.00;93.80;;;;;;5058837;28;20186;-76
2022/01/09 01:04:09;;;;;;;2.97;2.73;;;5.00;93.80;;;;;;5057333;28;20234;-76
2022/01/09 01:06:35;;;;;;;4.50;3.50;;;5.10;93.80;;;;;;5056544;28;20189;-75
2022/01/09 01:09:00;;;;;;;7.57;3.93;;;5.10;93.70;;;;;;5056778;28;20725;-76
2022/01/09 01:11:26;;;;;;;4.27;3.30;;;5.10;93.50;;;;;;5072428;28;20193;-76
2022/01/09 01:13:52;;;;;;;3.73;2.93;;;5.10;93.50;;;;;;5059825;28;20662;-76
2022/01/09 01:16:18;;;;;;;3.33;2.87;;;5.00;93.40;;;;;;5056766;28;20270;-76
2022/01/09 01:18:45;;;;;;;3.50;3.20;;;5.00;93.50;;;;;;5054396;28;20749;-76
2022/01/09 01:21:12;;;;;;;3.13;2.00;;;5.00;93.60;;;;;;5049876;28;20983;-75
2022/01/09 01:23:37;;;;;;;2.00;1.90;;;5.00;93.90;;;;;;5054896;28;20210;-76
2022/01/09 01:26:03;;;;;;;2.53;1.90;;;5.00;93.90;;;;;;5055125;28;20175;-76
2022/01/09 01:28:30;;;;;;;3.27;2.37;;;4.90;93.80;;;;;;5049660;28;20192;-76
2022/01/09 01:30:56;;;;;;;3.60;2.47;;;4.90;94.20;;;;;;5055432;28;20616;-75
2022/01/09 01:33:22;;;;;;;2.40;2.23;;;5.00;94.30;;;;;;5055038;28;20180;-76
2022/01/09 01:35:48;;;;;;;3.03;2.67;;;5.00;94.20;;;;;;5048447;28;20248;-75
2022/01/09 01:38:14;;;;;;;2.87;2.67;;;4.90;94.10;;;;;;5056378;28;20210;-76
2022/01/09 01:40:40;;;;;;;4.57;2.40;;;4.90;94.20;;;;;;5051739;28;20180;-76
2022/01/09 01:43:07;;;;;;;5.27;3.27;;;4.90;94.10;;;;;;5054291;28;20183;-76
2022/01/09 01:45:32;;;;;;;2.97;2.73;;;4.90;94.10;;;;;;5046537;28;20183;-76
2022/01/09 01:48:05;;;;;;;6.13;3.60;;;4.90;93.90;;;;;;5050641;28;20444;-76
2022/01/09 01:50:36;;;;;;;3.70;3.40;;;5.00;93.90;;;;;;5052037;28;20642;-75
2022/01/09 01:53:07;;;;;;;2.50;2.30;;;5.00;93.90;;;;;;5052881;28;20194;-76
2022/01/09 01:55:38;;;;;;;5.07;3.10;;;5.00;93.80;;;;;;5058188;28;20302;-75
2022/01/09 01:58:12;;;;;;;2.70;2.50;;;5.00;93.90;;;;;;5057551;28;20206;-74
2022/01/09 02:00:42;;;;;;;3.10;2.60;;;5.00;93.80;;;;;;5064393;28;20182;-76
2022/01/09 02:03:09;;;;;;;3.53;2.77;;;5.00;93.90;;;;;;5063149;28;20171;-75
2022/01/09 02:05:36;;;;;;;3.23;2.40;;;5.00;93.80;;;;;;5061339;28;20633;-76
2022/01/09 02:08:03;;;;;;;4.17;3.47;;;5.00;94.10;;;;;;5060140;28;20668;-75
2022/01/09 02:10:28;;;;;;;3.03;2.70;;;5.00;93.90;;;;;;5058973;28;20175;-75
2022/01/09 02:12:56;;;;;;;4.93;3.50;;;5.00;93.90;;;;;;5057046;28;20183;-75
2022/01/09 02:15:36;;;;;;;4.23;2.70;;;4.90;93.90;;;;;;5054622;28;20263;-75
2022/01/09 02:18:07;;;;;;;2.60;1.97;;;4.80;93.90;;;;;;5054153;28;20182;-75
2022/01/09 02:20:34;;;;;;;4.57;2.43;;;4.80;94.10;;;;;;5068104;28;20207;-74
2022/01/09 02:23:01;;;;;;;3.07;2.87;;;4.70;94.00;;;;;;5060013;28;20211;-74
2022/01/09 02:25:27;;;;;;;3.03;2.57;;;4.70;94.10;;;;;;5059088;28;20532;-75
2022/01/09 02:27:54;;;;;;;3.60;2.50;;;4.70;94.20;;;;;;5055360;28;20191;-74
2022/01/09 02:30:19;;;;;;;3.27;2.90;;;4.60;94.50;;;;;;5058027;28;20183;-75
2022/01/09 02:32:45;;;;;;;3.37;2.30;;;4.60;94.50;;;;;;5058340;28;20183;-75
2022/01/09 02:35:11;;;;;;;2.60;2.23;;;4.60;94.50;;;;;;5055178;28;20301;-76
2022/01/09 02:37:37;;;;;;;3.30;2.73;;;4.60;94.50;;;;;;5057967;28;20207;-76
2022/01/09 02:40:04;;;;;;;3.03;2.73;;;4.50;94.50;;;;;;5053963;28;20188;-76
2022/01/09 02:42:31;;;;;;;3.77;2.70;;;4.50;94.40;;;;;;5056297;28;20207;-76
2022/01/09 02:44:57;;;;;;;3.83;2.90;;;4.40;94.40;;;;;;5055373;28;20214;-76
2022/01/09 02:47:25;;;;;;;3.90;2.40;;;4.40;94.50;;;;;;5048610;28;20179;-75
2022/01/09 02:49:53;;;;;;;2.77;2.67;;;4.40;94.50;;;;;;5059242;28;20211;-76
2022/01/09 02:52:49;;;;;;;3.07;2.77;;;4.30;94.70;;;;;;5056696;28;20182;-76
2022/01/09 02:55:12;;;;;;;3.10;2.70;;;4.40;94.70;;;;;;5057137;28;20206;-76
2022/01/09 02:57:41;;;;;;;1.87;1.73;;;4.40;94.70;;;;;;5055520;28;20196;-76
2022/01/09 03:00:10;;;;;;;3.17;2.83;;;4.40;94.80;;;;;;5057459;28;20175;-76
2022/01/09 03:02:36;;;;;;;5.17;3.13;;;4.40;94.80;;;;;;5052718;28;20201;-74
2022/01/09 03:05:02;;;;;;;2.83;2.57;;;4.50;94.80;;;;;;5053265;28;20211;-75
2022/01/09 03:07:28;;;;;;;5.30;3.30;;;4.50;94.80;;;;;;5055074;28;20211;-75
2022/01/09 03:09:54;;;;;;;4.20;3.30;;;4.50;94.80;;;;;;5055504;28;20261;-75
2022/01/09 03:12:20;;;;;;;5.33;3.67;;;4.50;94.80;;;;;;5057040;28;20344;-75
2022/01/09 03:14:46;;;;;;;2.83;2.60;;;4.50;94.70;;;;;;5055321;28;20269;-75
2022/01/09 03:17:12;;;;;;;3.50;3.00;;;4.60;94.70;;;;;;5054721;28;20210;-75
2022/01/09 03:19:38;;;;;;;5.97;3.90;;;4.60;94.70;;;;;;5057482;28;20183;-75
2022/01/09 03:22:04;;;;;;;4.57;3.13;;;4.60;94.70;;;;;;5055160;28;20191;-76
2022/01/09 03:24:30;;;;;;;3.53;2.47;;;4.60;94.60;;;;;;5056177;28;20594;-76
2022/01/09 03:26:55;;;;;;;3.33;3.00;;;4.60;94.50;;;;;;5053604;28;20183;-76
2022/01/09 03:29:21;;;;;;;3.23;2.87;;;4.60;94.40;;;;;;5053671;28;20187;-74
2022/01/09 03:31:47;;;;;;;3.03;2.73;;;4.50;94.40;;;;;;5051359;28;20274;-75
2022/01/09 03:34:13;;;;;;;2.87;2.67;;;4.50;94.60;;;;;;5056608;28;20183;-74
2022/01/09 03:36:38;;;;;;;3.23;2.90;;;4.50;94.70;;;;;;5053206;28;20666;-75
2022/01/09 03:39:04;;;;;;;2.93;2.27;;;4.50;94.70;;;;;;5055204;28;20199;-75
2022/01/09 03:41:30;;;;;;;4.57;2.90;;;4.50;94.90;;;;;;5053759;28;20266;-75
2022/01/09 03:43:56;;;;;;;5.27;2.63;;;4.50;94.90;;;;;;5056982;28;20225;-76
2022/01/09 03:46:21;;;;;;;4.73;2.93;;;4.50;95.00;;;;;;5054044;28;20179;-76
2022/01/09 03:48:47;;;;;;;2.97;2.77;;;4.40;95.00;;;;;;5056724;28;20242;-74
2022/01/09 03:51:13;;;;;;;2.50;2.30;;;4.40;95.20;;;;;;5056195;28;20260;-76
2022/01/09 03:53:39;;;;;;;1.93;1.83;;;4.40;95.30;;;;;;5054453;28;20979;-76
2022/01/09 03:56:05;;;;;;;4.17;2.97;;;4.40;95.50;;;;;;5054111;28;21083;-74
2022/01/09 03:58:31;;;;;;;3.23;2.87;;;4.40;95.50;;;;;;5057624;28;20275;-74
2022/01/09 04:00:57;;;;;;;5.27;3.33;;;4.40;95.50;;;;;;5053978;28;20241;-75
2022/01/09 04:03:23;;;;;;;4.07;3.37;;;4.40;95.60;;;;;;5053886;28;20268;-75
2022/01/09 04:05:48;;;;;;;6.83;3.10;;;4.40;95.60;;;;;;5056429;28;20179;-75
2022/01/09 04:08:14;;;;;;;4.13;3.70;;;4.40;95.60;;;;;;5058652;28;20187;-75
2022/01/09 04:10:42;;;;;;;3.30;3.00;;;4.40;95.50;;;;;;5053084;28;20574;-75
2022/01/09 04:13:11;;;;;;;5.60;3.60;;;4.40;95.40;;;;;;5054938;28;20176;-74
2022/01/09 04:15:38;;;;;;;5.47;3.13;;;4.30;95.30;;;;;;5051200;28;20393;-74
2022/01/09 04:18:04;;;;;;;5.07;3.90;;;4.30;95.40;;;;;;5058401;28;20182;-75
2022/01/09 04:20:31;;;;;;;4.93;3.30;;;4.30;95.50;;;;;;5051555;28;20176;-75
2022/01/09 04:22:59;;;;;;;3.73;3.33;;;4.20;95.80;;;;;;5055489;28;20676;-76
2022/01/09 04:25:25;;;;;;;7.93;3.27;;;4.20;95.90;;;;;;5054624;28;20223;-75
2022/01/09 04:27:51;;;;;;;4.70;2.93;;;4.20;95.90;;;;;;5054641;28;20239;-75
2022/01/09 04:30:18;;;;;;;3.53;3.10;;;4.20;96.00;;;;;;5053161;28;20740;-75
2022/01/09 04:32:44;;;;;;;6.30;4.13;;;4.20;96.20;;;;;;5053897;28;20199;-76
2022/01/09 04:35:10;;;;;;;4.63;3.83;;;4.20;96.80;;;;;;5054258;28;20194;-75
2022/01/09 04:37:37;;;;;;;3.40;3.13;;;4.20;96.50;;;;;;5057618;28;20175;-75
2022/01/09 04:40:05;;;;;;;6.27;3.60;;;4.20;96.50;;;;;;5050741;28;20182;-75
2022/01/09 04:42:39;;;;;;;4.00;3.40;;;4.30;96.80;;;;;;5052523;28;20250;-75
2022/01/09 04:45:07;;;;;;;4.50;3.00;;;4.30;96.60;;;;;;5052298;28;20218;-75
2022/01/09 04:47:33;;;;;;;3.67;3.37;;;4.30;96.60;;;;;;5058370;28;20228;-75
2022/01/09 04:49:59;;;;;;;3.93;3.53;;;4.40;96.60;;;;;;5054957;28;20191;-75
2022/01/09 04:52:31;;;;;;;6.93;3.83;;;4.40;96.50;;;;;;5056782;28;20187;-74
2022/01/09 04:54:57;;;;;;;4.30;3.23;;;4.50;96.40;;;;;;5051878;28;20190;-75
2022/01/09 04:57:22;;;;;;;4.00;2.73;;;4.50;96.20;;;;;;5056186;28;20639;-76
2022/01/09 04:59:48;;;;;;;3.43;2.73;;;4.60;96.10;;;;;;5061737;28;20187;-75
2022/01/09 05:02:14;;;;;;;5.57;3.33;;;4.60;96.00;;;;;;5055602;28;20193;-75
2022/01/09 05:04:39;;;;;;;2.87;2.63;;;4.60;95.90;;;;;;5061179;28;20693;-75
2022/01/09 05:07:05;;;;;;;7.37;3.13;;;4.60;95.80;;;;;;5053441;28;20633;-76
2022/01/09 05:09:31;;;;;;;3.73;3.33;;;4.70;95.70;;;;;;5056981;28;20174;-76
2022/01/09 05:11:57;;;;;;;6.20;4.13;;;4.70;95.50;;;;;;5054732;28;20194;-75
2022/01/09 05:14:23;;;;;;;7.10;4.27;;;4.70;95.60;;;;;;5056658;28;20284;-75
2022/01/09 05:16:49;;;;;;;5.57;4.10;;;4.60;95.70;;;;;;5055892;28;20740;-75
2022/01/09 05:19:21;;;;;;;4.87;3.73;;;4.60;95.80;;;;;;5049435;28;20174;-75
2022/01/09 05:21:48;;;;;;;7.40;3.67;;;4.70;95.70;;;;;;5045216;28;20190;-74
2022/01/09 05:24:15;;;;;;;5.80;4.30;;;4.70;95.70;;;;;;5054754;28;20210;-74
2022/01/09 05:26:41;;;;;;;5.20;3.70;;;4.70;95.50;;;;;;5053552;28;20191;-74
2022/01/09 05:29:07;;;;;;;5.33;3.43;;;4.70;95.70;;;;;;5055313;28;21228;-74
2022/01/09 05:31:32;;;;;;;5.23;4.60;;;4.70;95.70;;;;;;5054691;28;20175;-74
2022/01/09 05:33:58;;;;;;;7.30;5.83;;;4.70;95.90;;;;;;5059333;28;20582;-74
2022/01/09 05:36:24;;;;;;;9.80;5.40;;;4.70;96.00;;;;;;5058848;28;20186;-74
2022/01/09 05:38:49;;;;;;;5.53;4.37;;;4.70;96.10;;;;;;5055537;28;20182;-74
2022/01/09 05:41:15;;;;;;;6.40;4.27;;;4.70;96.00;;;;;;5057841;28;20684;-74
2022/01/09 05:43:41;;;;;;;6.27;3.80;;;4.70;95.90;;;;;;5058723;28;20207;-76
2022/01/09 05:46:07;;;;;;;6.17;4.97;;;4.70;95.70;;;;;;5057637;28;20236;-75
2022/01/09 05:48:32;;;;;;;9.77;4.27;;;4.70;95.70;;;;;;5056504;28;21009;-75
2022/01/09 05:50:58;;;;;;;5.90;3.97;;;4.70;95.50;;;;;;5056341;28;20206;-75
2022/01/09 05:53:24;;;;;;;6.17;4.23;;;4.70;95.50;;;;;;5054552;28;20267;-75
2022/01/09 05:55:50;;;;;;;9.70;5.33;;;4.70;95.60;;;;;;5055902;28;20237;-75
2022/01/09 05:58:16;;;;;;;10.97;5.43;;;4.60;95.70;;;;;;5057077;28;20284;-75
2022/01/09 06:00:42;;;;;;;5.83;4.50;;;4.60;95.80;;;;;;5056463;28;20564;-75
2022/01/09 06:03:08;;;;;;;7.03;4.27;;;4.70;95.80;;;;;;5056823;28;20194;-75
2022/01/09 06:05:34;;;;;;;12.13;3.70;;;4.70;95.80;;;;;;5053563;28;20241;-75
2022/01/09 06:07:59;;;;;;;8.57;4.63;;;4.70;95.80;;;;;;5058161;28;20210;-75
2022/01/09 06:10:25;;;;;;;6.37;4.37;;;4.70;95.80;;;;;;5060491;28;20175;-75
2022/01/09 06:12:51;;;;;;;6.73;4.43;;;4.70;95.80;;;;;;5056711;28;20234;-75
2022/01/09 06:15:17;;;;;;;7.27;4.97;;;4.80;95.70;;;;;;5050555;28;20183;-75
2022/01/09 06:17:44;;;;;;;3.97;3.57;;;4.70;95.40;;;;;;5055220;28;20184;-76
2022/01/09 06:20:11;;;;;;;7.37;4.67;;;4.80;95.80;;;;;;5060704;28;20215;-75
2022/01/09 06:22:38;;;;;;;10.43;5.43;;;4.80;95.80;;;;;;5053483;28;20191;-75
2022/01/09 06:25:04;;;;;;;5.40;4.03;;;4.80;95.70;;;;;;5054581;28;20219;-75
2022/01/09 06:27:30;;;;;;;10.87;5.50;;;4.90;95.80;;;;;;5048020;28;20187;-75
2022/01/09 06:29:56;;;;;;;6.53;4.33;;;4.90;95.80;;;;;;5053257;28;20194;-75
2022/01/09 06:32:22;;;;;;;5.47;4.60;;;4.90;95.70;;;;;;5058138;28;20183;-75
2022/01/09 06:34:48;;;;;;;6.33;4.77;;;5.00;95.60;;;;;;5053727;28;20190;-75
2022/01/09 06:37:13;;;;;;;6.03;4.63;;;5.10;95.60;;;;;;5055033;28;20182;-75
2022/01/09 06:39:43;;;;;;;7.07;4.60;;;5.20;95.60;;;;;;5049135;28;20248;-78
2022/01/09 06:42:09;;;;;;;5.40;4.47;;;5.30;95.90;;;;;;5052857;28;20757;-78
2022/01/09 06:44:35;;;;;;;6.13;5.53;;;5.60;96.50;;;;;;5052952;28;20599;-75
2022/01/09 06:47:01;;;;;;;7.53;5.27;;;5.90;96.70;;;;;;5052194;28;20181;-75
2022/01/09 06:49:27;;;;;;;4.70;4.20;;;6.30;96.40;;;;;;5054688;28;20229;-74
2022/01/09 06:51:53;;;;;;;4.27;3.97;;;6.70;96.70;;;;;;5052761;28;20293;-74
2022/01/09 06:54:18;;;;;;;9.57;4.77;;;7.20;96.60;;;;;;5052313;28;20183;-74
2022/01/09 06:56:44;;;;;;;5.47;3.13;;;7.50;94.40;;;;;;5052200;28;20266;-75
2022/01/09 06:59:10;;;;;;;3.67;3.40;;;7.90;92.70;;;;;;5058008;28;20245;-74
2022/01/09 07:01:35;;;;;;;4.10;3.37;;;8.10;90.90;;;;;;5052349;28;20179;-75
2022/01/09 07:04:01;;;;;;;5.40;3.20;;;8.20;87.90;;;;;;5052680;28;20206;-75
2022/01/09 07:06:27;;;;;;;5.30;3.10;;;8.20;87.00;;;;;;5053637;28;20187;-74
2022/01/09 07:08:52;;;;;;;3.90;2.70;;;8.00;86.00;;;;;;5052554;28;20215;-75
2022/01/09 07:11:18;;;;;;;4.90;3.30;;;7.90;86.10;;;;;;5054276;28;20187;-74
2022/01/09 07:13:44;;;;;;;2.43;2.23;;;7.70;86.40;;;;;;5053466;28;20701;-75
2022/01/09 07:16:09;;;;;;;4.67;2.63;;;7.60;86.80;;;;;;5049473;28;20180;-75
2022/01/09 07:18:35;;;;;;;3.23;2.80;;;7.50;87.60;;;;;;5046800;28;20184;-76
2022/01/09 07:21:03;;;;;;;2.60;2.37;;;7.50;87.40;;;;;;5048382;28;20195;-75
2022/01/09 07:23:29;;;;;;;2.67;2.47;;;7.70;88.40;;;;;;5050659;28;20179;-76
2022/01/09 07:25:55;;;;;;;4.43;3.10;;;7.90;88.20;;;;;;5052639;28;20274;-74
2022/01/09 07:28:21;;;;;;;2.40;2.20;;;8.00;88.10;;;;;;5051373;28;20286;-74
2022/01/09 07:30:47;;;;;;;2.70;2.50;;;8.10;88.00;;;;;;5054517;28;20187;-75
2022/01/09 07:33:12;;;;;;;2.37;2.13;;;8.30;88.10;;;;;;5052733;28;20175;-75
2022/01/09 07:35:38;;;;;;;3.53;1.93;;;8.60;88.40;;;;;;5053794;28;20298;-75
2022/01/09 07:38:04;;;;;;;2.67;2.43;;;8.90;86.90;;;;;;5043503;28;20182;-74
2022/01/09 07:40:30;;;;;;;4.17;2.10;;;9.00;86.00;;;;;;5055694;28;20188;-77
2022/01/09 07:42:55;;;;;;;2.78;2.67;;;9.20;85.30;;;;;;5054052;28;20189;-76
2022/01/09 07:45:24;;;;;;;4.27;3.63;;;9.30;84.60;;;;;;5050023;28;20222;-74
2022/01/09 07:47:51;;;;;;;3.30;2.97;;;9.40;84.60;;;;;;5046289;28;20267;-75
2022/01/09 07:50:17;;;;;;;2.83;2.60;;;9.60;84.50;;;;;;5052132;28;20212;-75
2022/01/09 07:52:42;;;;;;;3.08;2.83;;;9.80;83.50;;;;;;5052826;28;20219;-75
2022/01/09 07:55:09;;;;;;;4.00;2.85;;;9.90;83.40;;;;;;5046273;28;20245;-74
2022/01/09 07:57:36;;;;;;;2.40;2.20;;;10.00;82.70;;;;;;5047908;28;20198;-75
2022/01/09 08:00:05;;;;;;;2.78;2.58;;;10.20;82.20;;;;;;5042737;28;20183;-74
2022/01/09 08:02:30;;;;;;;2.95;2.70;;;10.40;81.80;;;;;;5053887;28;20848;-76
2022/01/09 08:04:56;;;;;;;2.45;2.35;;;10.80;81.50;;;;;;5052115;28;20219;-77
2022/01/09 08:07:22;;;;;;;4.70;3.30;;;11.10;80.10;;;;;;5046632;28;20202;-74
2022/01/09 08:09:48;;;;;;;3.00;2.72;;;11.50;81.90;;;;;;5051657;28;20179;-73
2022/01/09 08:12:16;;;;;;;3.47;3.17;;;12.20;82.40;;;;;;5051814;28;20222;-74
2022/01/09 08:14:43;;;;;;;2.70;2.45;;;12.60;76.50;;;;;;5047064;28;20576;-74
2022/01/09 08:17:09;;;;;;;3.00;2.83;;;12.90;76.70;;;;;;5047212;28;20336;-74
2022/01/09 08:19:35;;;;;;;3.60;3.30;;;13.40;75.90;;;;;;5049520;28;20261;-75
2022/01/09 08:22:05;;;;;;;2.95;2.78;;;14.00;76.30;;;;;;5051203;28;20681;-76
2022/01/09 08:24:31;;;;;;;2.45;2.35;;;14.70;76.30;;;;;;5051545;28;20626;-75
2022/01/09 08:26:57;;;;;;;3.08;2.53;;;15.40;74.20;;;;;;5046695;28;20215;-75
2022/01/09 08:29:23;;;;;;;1.80;1.70;;;16.10;72.80;;;;;;5051329;28;20207;-75
2022/01/09 08:31:49;;;;;;;2.53;2.20;;;16.80;73.40;;;;;;5050461;28;20203;-72
2022/01/09 08:34:14;;;;;;;2.30;2.08;;;17.60;72.30;;;;;;5044892;28;20183;-75
2022/01/09 08:36:40;;;;;;;2.80;2.22;;;18.40;67.70;;;;;;5047177;28;20180;-73
2022/01/09 08:39:06;;;;;;;2.45;2.35;;;18.60;65.40;;;;;;5050910;28;20203;-75
2022/01/09 08:41:33;;;;;;;1.92;1.83;;;18.60;62.50;;;;;;5050838;28;20267;-74
2022/01/09 08:44:01;;;;;;;2.35;2.15;;;18.50;63.70;;;;;;5048233;28;20211;-74
2022/01/09 08:46:27;;;;;;;1.85;1.75;;;18.70;63.70;;;;;;5047057;28;20935;-74
2022/01/09 08:48:52;;;;;;;1.70;1.70;;;18.80;63.20;;;;;;5048410;28;20182;-73
2022/01/09 08:51:18;;;;;;;2.25;2.15;;;18.80;62.80;;;;;;5046641;28;20187;-73
2022/01/09 08:53:50;;;;;;;2.08;1.98;;;18.60;63.20;;;;;;5052188;28;20187;-74
2022/01/09 08:56:17;;;;;;;1.67;1.60;;;18.40;63.10;;;;;;5049128;28;20187;-73
2022/01/09 08:58:43;;;;;;;1.77;1.67;;;17.70;61.20;;;;;;5048540;28;20310;-74
2022/01/09 09:01:09;;;;;;;1.88;1.77;;;17.30;62.60;;;;;;5051509;28;20980;-74
2022/01/09 09:03:36;;;;;;;2.35;2.15;;;17.00;63.70;;;;;;5048977;28;20721;-74
2022/01/09 09:06:02;;;;;;;2.40;2.17;;;16.60;63.70;;;;;;5050190;28;20261;-74
2022/01/09 09:08:28;;;;;;;2.78;2.60;;;15.80;65.20;;;;;;5047561;28;20733;-74
2022/01/09 09:10:53;;;;;;;2.38;2.20;;;15.50;65.30;;;;;;5048336;28;20190;-73
2022/01/09 09:13:19;;;;;;;2.85;2.65;;;15.20;66.70;;;;;;5045066;28;20560;-72
2022/01/09 09:15:46;;;;;;;2.80;2.50;;;15.30;67.40;;;;;;5047597;28;20187;-73
2022/01/09 09:18:11;;;;;;;3.33;3.03;;;15.30;66.60;;;;;;5050388;28;20240;-73
2022/01/09 09:20:38;;;;;;;2.28;2.17;;;15.10;67.00;;;;;;5047355;28;20201;-73
2022/01/09 09:23:04;;;;;;;2.95;2.85;;;15.10;67.00;;;;;;5045596;28;20187;-73
2022/01/09 09:25:30;;;;;;;3.47;3.22;;;15.00;66.80;;;;;;5044267;28;20231;-74
2022/01/09 09:27:55;;;;;;;3.22;2.92;;;14.70;66.80;;;;;;5043777;28;20198;-74
2022/01/09 09:30:21;;;;;;;2.33;2.22;;;14.10;67.30;;;;;;5055082;28;20175;-74
2022/01/09 09:32:47;;;;;;;2.15;2.05;;;13.50;68.30;;;;;;5048340;28;20804;-73
2022/01/09 09:35:12;;;;;;;1.40;1.40;;;13.40;68.40;;;;;;5047506;28;20707;-74
2022/01/09 09:37:39;;;;;;;1.88;1.77;;;13.30;68.80;;;;;;5042740;28;20574;-74
2022/01/09 09:40:05;;;;;;;2.20;1.48;;;13.40;70.00;;;;;;5038441;28;20198;-74
2022/01/09 09:42:32;;;;;;;1.90;1.80;;;14.00;69.60;;;;;;5042043;28;20610;-73
2022/01/09 09:45:00;;;;;;;1.65;1.65;;;14.70;68.10;;;;;;5046185;28;20723;-74
2022/01/09 09:47:27;;;;;;;1.35;1.35;;;15.10;65.70;;;;;;5043058;28;20526;-74
2022/01/09 09:49:53;;;;;;;1.50;1.40;;;15.20;65.70;;;;;;5047665;28;20180;-72
2022/01/09 09:52:19;;;;;;;1.48;1.48;;;15.30;65.30;;;;;;5051150;28;20266;-74
2022/01/09 09:54:50;;;;;;;1.75;1.70;;;15.60;66.40;;;;;;5046512;28;20222;-75
2022/01/09 09:57:16;;;;;;;1.92;1.83;;;16.00;65.20;;;;;;5045665;28;20198;-74
2022/01/09 09:59:41;;;;;;;3.45;2.00;;;16.10;64.70;;;;;;5050687;28;20183;-73
2022/01/09 10:02:09;;;;;;;1.83;1.73;;;16.00;64.30;;;;;;5046497;28;20245;-73
2022/01/09 10:04:35;;;;;;;1.60;1.60;;;15.20;63.80;;;;;;5049057;28;20215;-74
2022/01/09 10:07:01;;;;;;;2.20;2.10;;;14.10;66.00;;;;;;5056050;28;20180;-75
2022/01/09 10:09:27;;;;;;;2.00;1.90;;;13.70;67.20;;;;;;5046236;28;20252;-75
2022/01/09 10:12:00;;;;;;;2.67;2.00;;;13.20;68.00;;;;;;5056753;28;20187;-77
2022/01/09 10:14:31;;;;;;;1.75;1.73;;;12.90;69.30;;;;;;5054894;28;20184;-74
2022/01/09 10:17:19;;;;;;;1.83;1.73;;;12.60;70.40;;;;;;5052368;28;20234;-74
2022/01/09 10:19:48;;;;;;;2.33;2.10;;;12.30;70.40;;;;;;5061299;28;20629;-74
2022/01/09 10:22:33;;;;;;;3.00;1.80;;;12.00;71.70;;;;;;5054566;28;20218;-74
2022/01/09 10:25:28;;;;;;;2.53;2.33;;;11.80;72.40;;;;;;5057380;28;20248;-74
2022/01/09 10:28:05;;;;;;;1.33;1.30;;;11.70;72.70;;;;;;5055720;28;20192;-74
2022/01/09 10:30:35;;;;;;;1.45;1.40;;;11.60;73.10;;;;;;5048864;28;20187;-74
2022/01/09 10:33:07;;;;;;;2.28;2.08;;;11.50;73.30;;;;;;5055131;28;20259;-75
2022/01/09 10:35:34;;;;;;;2.17;2.08;;;11.40;73.70;;;;;;5051739;28;20249;-75
2022/01/09 10:38:22;;;;;;;1.77;1.67;;;11.30;74.30;;;;;;5050974;28;20179;-74
2022/01/09 10:40:57;;;;;;;2.22;2.13;;;11.30;74.50;;;;;;5055753;28;20287;-75
2022/01/09 10:43:25;;;;;;;1.90;1.80;;;11.20;74.60;;;;;;5054040;28;20657;-74
2022/01/09 10:46:00;;;;;;;2.55;1.95;;;11.20;74.70;;;;;;5053677;28;20663;-74
2022/01/09 10:48:39;;;;;;;3.30;1.70;;;11.20;74.90;;;;;;5059954;28;20236;-74
2022/01/09 10:51:09;;;;;;;1.60;1.52;;;11.20;74.60;;;;;;5071451;28;20191;-74
2022/01/09 10:53:42;;;;;;;1.90;1.80;;;11.20;74.80;;;;;;5056898;28;20179;-75
2022/01/09 10:56:20;;;;;;;2.72;2.03;;;11.20;74.90;;;;;;5055324;28;20179;-74
2022/01/09 10:58:54;;;;;;;1.83;1.73;;;11.20;74.80;;;;;;5052785;28;20674;-74
2022/01/09 11:01:26;;;;;;;2.15;2.05;;;11.00;75.10;;;;;;5048920;28;20179;-73
2022/01/09 11:03:57;;;;;;;1.77;1.63;;;10.70;75.50;;;;;;5045464;28;20200;-74
2022/01/09 11:06:27;;;;;;;2.03;1.92;;;10.60;76.20;;;;;;5047492;28;20645;-73
2022/01/09 11:08:54;;;;;;;2.28;2.08;;;10.60;76.40;;;;;;5043411;28;20184;-76
2022/01/09 11:11:29;;;;;;;1.92;1.80;;;10.60;76.50;;;;;;5046998;28;20184;-75
2022/01/09 11:13:57;;;;;;;2.42;2.22;;;10.70;76.40;;;;;;5046753;28;20189;-74
2022/01/09 11:16:34;;;;;;;1.90;1.77;;;10.80;76.40;;;;;;5047646;28;20180;-73
2022/01/09 11:19:23;;;;;;;1.90;1.80;;;10.90;76.20;;;;;;5045296;28;20559;-73
2022/01/09 11:21:51;;;;;;;1.13;1.13;;;11.10;76.10;;;;;;5053970;28;20195;-73
2022/01/09 11:24:50;;;;;;;1.70;1.60;;;11.30;75.90;;;;;;5049754;28;20211;-73
2022/01/09 11:27:27;;;;;;;3.30;2.08;;;11.50;75.60;;;;;;5045604;28;20191;-71
2022/01/09 11:30:09;;;;;;;2.83;1.92;;;11.80;75.00;;;;;;5040150;28;20186;-72
2022/01/09 11:32:35;;;;;;;2.42;2.05;;;12.30;74.50;;;;;;5048559;28;20191;-72
2022/01/09 11:35:33;;;;;;;9.50;1.77;;;12.80;73.50;;;;;;5044979;28;20727;-72
2022/01/09 11:38:27;;;;;;;3.90;2.25;;;13.30;72.90;;;;;;5049671;28;20676;-72
2022/01/09 11:40:53;;;;;;;2.47;2.20;;;13.80;71.20;;;;;;5001106;28;20203;-73
2022/01/09 11:43:20;;;;;;;2.63;2.05;;;14.10;70.30;;;;;;5001976;28;20190;-71
2022/01/09 11:46:12;;;;;;;3.10;2.85;;;14.20;69.40;;;;;;5001673;28;20661;-73
2022/01/09 11:49:06;;;;;;;3.28;2.72;;;14.30;69.10;;;;;;4999328;28;20208;-76
2022/01/09 11:51:34;;;;;;;3.28;3.00;;;14.30;68.60;;;;;;5001394;28;20192;-76
2022/01/09 11:54:17;;;;;;;24.13;7.20;;;14.30;68.60;;;;;;4983711;28;21175;-76
2022/01/09 11:57:06;;;;;;;6.95;3.35;;;14.10;68.70;;;;;;4981995;28;20270;-75
2022/01/09 11:59:40;;;;;;;2.40;2.20;;;14.00;68.80;;;;;;4999009;28;20193;-73
2022/01/09 12:02:11;;;;;;;3.30;2.88;;;13.90;69.10;;;;;;5001979;28;20188;-77
2022/01/09 12:04:40;;;;;;;3.10;1.95;;;13.90;69.20;;;;;;5000211;28;20284;-75
2022/01/09 12:07:12;;;;;;;1.98;1.83;;;13.80;68.90;;;;;;5000425;28;20220;-74
2022/01/09 12:09:40;;;;;;;1.80;1.73;;;13.60;69.10;;;;;;4983330;28;20310;-72
2022/01/09 12:12:10;;;;;;;1.63;1.52;;;13.30;69.10;;;;;;4984805;28;20227;-71
2022/01/09 12:14:41;;;;;;;2.63;2.40;;;12.90;70.00;;;;;;4985389;28;20259;-72
2022/01/09 12:17:23;;;;;;;1.65;1.55;;;12.70;70.80;;;;;;5004345;28;20185;-73
2022/01/09 12:20:05;;;;;;;2.10;1.95;;;12.50;71.00;;;;;;5050625;28;20183;-73
2022/01/09 12:22:44;;;;;;;2.45;1.65;;;12.30;71.80;;;;;;5047166;28;20186;-74
2022/01/09 12:25:21;;;;;;;2.85;2.00;;;12.30;72.00;;;;;;5049926;28;20223;-74
2022/01/09 12:27:54;;;;;;;1.70;1.60;;;12.20;72.30;;;;;;5049901;28;20193;-73
2022/01/09 12:30:41;;;;;;;2.83;1.92;;;12.20;72.30;;;;;;5043925;28;20218;-71
2022/01/09 12:33:15;;;;;;;2.13;1.92;;;12.20;72.40;;;;;;5039052;28;20815;-73
2022/01/09 12:35:45;;;;;;;3.83;2.35;;;12.10;72.50;;;;;;5045663;28;20182;-72
2022/01/09 12:38:18;;;;;;;2.38;1.67;;;12.00;72.70;;;;;;5038757;28;20273;-77
2022/01/09 12:40:45;;;;;;;1.98;1.75;;;11.80;72.90;;;;;;5046577;28;20350;-75
2022/01/09 12:43:12;;;;;;;2.65;2.50;;;11.70;73.20;;;;;;5043191;28;20179;-75
2022/01/09 12:45:43;;;;;;;3.50;2.15;;;11.60;73.70;;;;;;5037268;28;20774;-76
2022/01/09 12:48:24;;;;;;;1.73;1.73;;;11.50;73.90;;;;;;5039901;28;20183;-77
2022/01/09 12:50:50;;;;;;;1.88;1.77;;;11.40;74.00;;;;;;5050442;28;20587;-75
2022/01/09 12:53:23;;;;;;;2.55;2.00;;;11.10;74.70;;;;;;5039905;28;20721;-72
2022/01/09 12:56:18;;;;;;;2.72;2.53;;;10.90;75.30;;;;;;5047156;28;20221;-74
2022/01/09 12:58:52;;;;;;;3.42;2.28;;;10.80;75.80;;;;;;5041066;28;20195;-75